Weslaco, TX

6:43 PM CST on February 07, 2016 (GMT -0600)
Weslaco | | Change Station
CLOSE
Current Station
Airport
Location: Weslaco,
Elevation: 69 ft
Nearby Weather Stations
Active Advisory: Fire Weather Watch

Elev 69 ft 26.18 °N, 97.97 °W | Updated 28 minutes ago

Clear
Clear
66 °F
Feels Like 66 °F
N
12
Wind Variable Wind from SSE
Gusts 16 mph

Today
High -- | Low -- °F
--% Chance of Precip.
Yesterday
High -- | Low -- °F
Precip. -- in
Pressure 30.13 in
Visibility 7.0 miles
Clouds Clear
Dew Point 38 °F
Humidity 35%
Rainfall 0.00 in
Snow Depth Not available.
7:13 AM 6:19 PM
Waning Crescent, 0% visible
METAR KT65 080015Z AUTO 15010G14KT 7SM CLR 19/03 A3013 RMK AO2 T01900032
Pressure 30.13 in
Visibility 7.0 miles
Clouds Clear
Dew Point 38 °F
Humidity 35%
Rainfall 0.00 in
Snow Depth Not available.
7:13 AM 6:19 PM
Waning Crescent, 0% visible
METAR KT65 080015Z AUTO 15010G14KT 7SM CLR 19/03 A3013 RMK AO2 T01900032

10-Day Weather Forecast

Almanac

Astronomy

Feb. 07, 2016 Rise Set
Actual Time
Civil Twilight
Nautical Twilight
Astronomical Twilight
Moon
Length of Visible Light
Length of Day
Tomorrow will be .
, % of the Moon is Illuminated

Today's Extremes

State Highs State Lows

Community

WunderPhotos

Upload Photos

1,891,339 photos uploaded!

WunderBlog® & News

Nearby

Air Quality

  Air Quality AQ Index Pollutant
Not available.

Snow Depth

Station Depth Elevation

Earthquake Activity

City Distance Mag. Time & Date
Minimum magnitude displayed is 2.5.

Coastal Water Temperatures

Place Temperature

Stations

Nearby Weather Stations

Station Location Temp. Windchill Dew Point Humidity Wind Precip. Elev Updated Type
                   

Watches & Warnings

Fire Weather Watch
Issued: 1:39 PM CST Feb. 7, 2016 – National Weather Service

... Fire Weather Watch remains in effect from Monday morning
through Monday afternoon for low humidity and breezy conditions
for fire weather zones 250... 251... 253... 254... 255... 256 and
257...

* affected area... fire weather zones 250... 251... 253... 254...
255... 256 and 257.

* Wind... north winds 15 miles per hour.

* Humidity... 15 to 20 percent

* impacts... any fires that develop will likely spread rapidly.
Outdoor burning is not recommended.

Precautionary/preparedness actions...

A Fire Weather Watch means critical fire weather conditions are
forecast to occur. In general... these conditions include
sustained 20 foot winds of 25 mph or greater... humidity ranging
from below 25 percent in Zapata County to below 45 percent along
the coast... each lasting for 2 hours or more... and cured fuels.
Humidity below 25 percent in most areas will trigger fire danger
at lower wind speeds. Detailed decision tables are found at
http://weather.Gov/rgv/?N=mapcolors#fire. Listen for later
forecasts and possible red flag warnings.